Jalma Topic — A8IQ6 — position and weather

sailwx.info

Track history (hours):
 
Tides and Currents Weather Stations Pressure Air Temp Water Temp Dewpoint Dewpoint Depression Visibility Wind Speed Wind Dir Waves Ship Positions

Jalma Topic

Last reported at 2015-Jul-31 22:25 UTC. Time now 2015-Aug-04 11:46 UTC.
Position N 35°30' W 127°38'.

Length 183 m; draft 10.9 m.

Type: Cargo ship. MMSI: 636012871.

Date/timePositionNaut miles runAvg speedWind from/ knotsBaromVisibWave heightAir tempDewpointWater temp
2015-Jul-31 22:25N 35°30' W 127°38'1613.2
2015-Jul-31 21:12N 35°22' W 127°21'6713.2
2015-Jul-31 16:09N 34°44' W 126°14'812.8
2015-Jul-31 15:33N 34°39' W 126°07'1712.8
2015-Jul-31 14:16N 34°29' W 125°50'2312.9
2015-Jul-31 12:30N 34°16' W 125°28'1212.5
2015-Jul-31 11:33N 34°09' W 125°17'1412.8
2015-Jul-31 10:28N 34°01' W 125°03'1212.6
2015-Jul-31 09:32N 33°54' W 124°52'1312.7
2015-Jul-31 08:33N 33°46' W 124°40'1412.1
2015-Jul-31 07:21N 33°37' W 124°26'3111.2
2015-Jul-31 04:33N 33°37' W 123°49'1111.2
2015-Jul-31 03:33N 33°37' W 123°35'1111.2
2015-Jul-31 02:33N 33°37' W 123°22'1111.1
2015-Jul-31 01:33N 33°37' W 123°08'1110.9
2015-Jul-31 00:33N 33°37' W 122°55'1111.0
2015-Jul-30 23:34N 33°37' W 122°42'1111.0
2015-Jul-30 22:33N 33°37' W 122°29'1111.0
2015-Jul-30 21:31N 33°37' W 122°15'1410.8
2015-Jul-30 20:11N 33°37' W 121°58'810.8
2015-Jul-30 19:28N 33°37' W 121°49'1111.0
2015-Jul-30 18:28N 33°37' W 121°35'1211.2
2015-Jul-30 17:24N 33°37' W 121°21'1011.6
2015-Jul-30 16:33N 33°37' W 121°09'1211.8
2015-Jul-30 15:32N 33°37' W 120°55'1111.4
2015-Jul-30 14:33N 33°37' W 120°42'1111.3
2015-Jul-30 13:33N 33°37' W 120°28'1211.5
2015-Jul-30 12:33N 33°37' W 120°14'1211.9
2015-Jul-30 11:33N 33°37' W 119°60'1211.9
2015-Jul-30 10:33N 33°37' W 119°46'1212.0
2015-Jul-30 09:33N 33°37' W 119°31'1212.4
2015-Jul-30 08:33N 33°37' W 119°16'1312.4
2015-Jul-30 07:32N 33°37' W 119°01'1212.1
2015-Jul-30 06:31N 33°36' W 118°46'1212.3
2015-Jul-30 05:33N 33°35' W 118°32'1212.1
2015-Jul-30 04:33N 33°35' W 118°18'9 9.2
2015-Jul-30 03:31N 33°43' W 118°11'2 1.7
2015-Jul-30 02:33N 33°44' W 118°10'0 0.0
2015-Jul-30 01:30N 33°44' W 118°10'0 0.0
2015-Jul-30 00:33N 33°44' W 118°10'0 0.0
2015-Jul-29 23:33N 33°44' W 118°10'0 0.0
2015-Jul-29 22:30N 33°44' W 118°10'0 0.0
2015-Jul-29 20:27N 33°44' W 118°10'0 0.0
2015-Jul-29 19:12N 33°44' W 118°10'0 0.0
2015-Jul-29 18:27N 33°44' W 118°10'0 0.0
2015-Jul-29 17:33N 33°44' W 118°10'0 0.0
2015-Jul-29 16:33N 33°44' W 118°10'0 0.0
2015-Jul-29 15:33N 33°44' W 118°10'0 0.1
2015-Jul-29 14:27N 33°44' W 118°10'0 0.1
2015-Jul-29 13:21N 33°44' W 118°10'0 0.1
2015-Jul-29 12:33N 33°44' W 118°10'1 0.6
2015-Jul-29 11:30N 33°44' W 118°11'10 9.5
2015-Jul-29 10:29N 33°34' W 118°09'1212.2
2015-Jul-29 09:31N 33°23' W 118°04'1212.4
2015-Jul-29 08:33N 33°12' W 117°59'1212.2
2015-Jul-29 07:33N 33°00' W 117°54'1212.2
2015-Jul-29 06:33N 32°49' W 117°50'1211.7
2015-Jul-29 05:33N 32°38' W 117°45'1111.4
2015-Jul-29 04:33N 32°27' W 117°41'1111.4
2015-Jul-29 03:33N 32°16' W 117°36'1110.2
2015-Jul-29 02:31N 32°06' W 117°32'1111.7
2015-Jul-29 01:33N 31°56' W 117°28'1312.7
2015-Jul-29 00:33N 31°44' W 117°23'1612.8
2015-Jul-28 23:19N 31°29' W 117°17'2612.6
2015-Jul-28 21:16N 31°04' W 117°07'912.9
2015-Jul-28 20:33N 30°56' W 117°03'1512.9
2015-Jul-28 19:23N 30°41' W 116°57'21612.8
2015-Jul-28 02:26N 27°22' W 115°22'3612.6
2015-Jul-27 23:33N 26°53' W 114°57'  
Track history (hours):
 
Tides and Currents Weather Stations Pressure Air Temp Water Temp Dewpoint Dewpoint Depression Visibility Wind Speed Wind Dir Waves Ship Positions

Jalma Topic

Last reported at 2015-Jul-31 22:25 UTC. Time now 2015-Aug-04 11:46 UTC.
Position N 35°30' W 127°38'.

Length 183 m; draft 10.9 m.

Type: Cargo ship. MMSI: 636012871.

Date/timePositionNaut miles runAvg speedWind from/ knotsBaromVisibWave heightAir tempDewpointWater temp
2015-Jul-31 22:25N 35°30' W 127°38'1613.2
2015-Jul-31 21:12N 35°22' W 127°21'6713.2
2015-Jul-31 16:09N 34°44' W 126°14'812.8
2015-Jul-31 15:33N 34°39' W 126°07'1712.8
2015-Jul-31 14:16N 34°29' W 125°50'2312.9
2015-Jul-31 12:30N 34°16' W 125°28'1212.5
2015-Jul-31 11:33N 34°09' W 125°17'1412.8
2015-Jul-31 10:28N 34°01' W 125°03'1212.6
2015-Jul-31 09:32N 33°54' W 124°52'1312.7
2015-Jul-31 08:33N 33°46' W 124°40'1412.1
2015-Jul-31 07:21N 33°37' W 124°26'3111.2
2015-Jul-31 04:33N 33°37' W 123°49'1111.2
2015-Jul-31 03:33N 33°37' W 123°35'1111.2
2015-Jul-31 02:33N 33°37' W 123°22'1111.1
2015-Jul-31 01:33N 33°37' W 123°08'1110.9
2015-Jul-31 00:33N 33°37' W 122°55'1111.0
2015-Jul-30 23:34N 33°37' W 122°42'1111.0
2015-Jul-30 22:33N 33°37' W 122°29'1111.0
2015-Jul-30 21:31N 33°37' W 122°15'1410.8
2015-Jul-30 20:11N 33°37' W 121°58'810.8
2015-Jul-30 19:28N 33°37' W 121°49'1111.0
2015-Jul-30 18:28N 33°37' W 121°35'1211.2
2015-Jul-30 17:24N 33°37' W 121°21'1011.6
2015-Jul-30 16:33N 33°37' W 121°09'1211.8
2015-Jul-30 15:32N 33°37' W 120°55'1111.4
2015-Jul-30 14:33N 33°37' W 120°42'1111.3
2015-Jul-30 13:33N 33°37' W 120°28'1211.5
2015-Jul-30 12:33N 33°37' W 120°14'1211.9
2015-Jul-30 11:33N 33°37' W 119°60'1211.9
2015-Jul-30 10:33N 33°37' W 119°46'1212.0
2015-Jul-30 09:33N 33°37' W 119°31'1212.4
2015-Jul-30 08:33N 33°37' W 119°16'1312.4
2015-Jul-30 07:32N 33°37' W 119°01'1212.1
2015-Jul-30 06:31N 33°36' W 118°46'1212.3
2015-Jul-30 05:33N 33°35' W 118°32'1212.1
2015-Jul-30 04:33N 33°35' W 118°18'9 9.2
2015-Jul-30 03:31N 33°43' W 118°11'2 1.7
2015-Jul-30 02:33N 33°44' W 118°10'0 0.0
2015-Jul-30 01:30N 33°44' W 118°10'0 0.0
2015-Jul-30 00:33N 33°44' W 118°10'0 0.0
2015-Jul-29 23:33N 33°44' W 118°10'0 0.0
2015-Jul-29 22:30N 33°44' W 118°10'0 0.0
2015-Jul-29 20:27N 33°44' W 118°10'0 0.0
2015-Jul-29 19:12N 33°44' W 118°10'0 0.0
2015-Jul-29 18:27N 33°44' W 118°10'0 0.0
2015-Jul-29 17:33N 33°44' W 118°10'0 0.0
2015-Jul-29 16:33N 33°44' W 118°10'0 0.0
2015-Jul-29 15:33N 33°44' W 118°10'0 0.1
2015-Jul-29 14:27N 33°44' W 118°10'0 0.1
2015-Jul-29 13:21N 33°44' W 118°10'0 0.1
2015-Jul-29 12:33N 33°44' W 118°10'1 0.6
2015-Jul-29 11:30N 33°44' W 118°11'10 9.5
2015-Jul-29 10:29N 33°34' W 118°09'1212.2
2015-Jul-29 09:31N 33°23' W 118°04'1212.4
2015-Jul-29 08:33N 33°12' W 117°59'1212.2
2015-Jul-29 07:33N 33°00' W 117°54'1212.2
2015-Jul-29 06:33N 32°49' W 117°50'1211.7
2015-Jul-29 05:33N 32°38' W 117°45'1111.4
2015-Jul-29 04:33N 32°27' W 117°41'1111.4
2015-Jul-29 03:33N 32°16' W 117°36'1110.2
2015-Jul-29 02:31N 32°06' W 117°32'1111.7
2015-Jul-29 01:33N 31°56' W 117°28'1312.7
2015-Jul-29 00:33N 31°44' W 117°23'1612.8
2015-Jul-28 23:19N 31°29' W 117°17'2612.6
2015-Jul-28 21:16N 31°04' W 117°07'912.9
2015-Jul-28 20:33N 30°56' W 117°03'1512.9
2015-Jul-28 19:23N 30°41' W 116°57'21612.8
2015-Jul-28 02:26N 27°22' W 115°22'3612.6
2015-Jul-27 23:33N 26°53' W 114°57'  

Dump ship's entire track history